메인 페이지
METAR-TAF:

METAR-TAF

공항 :

스튜어트 국제공항

Newburgh, 뉴욕, 미국

위도: 41-30N, 경도: 074-06W, 고도: 150m

현재 날씨관측

예보는 10분 전, 03:45시(UTC)에 발표되었습니다.
북서18kt, 순간 최대 풍속 28kt
온도 -4°C
습도 54%
기압 1012 hPa
시정: 16.1km
고도 10000ft 상공 구름 보통

METAR: KSWF 050345Z 31018G28KT 10SM SCT100 M04/M12 A2987

시각: 22:55 (03:55 UTC)

예보

예보는 1 시간 22분 전, 02:33시(UTC)에 발표되었습니다.
예보 대상 시간: 05일 03시부터 06일 06시까지 (UTC)
북서18kt, 순간 최대 풍속 28kt
시정: 10km
맑음
05일 1000시부터 (UTC)
북서16kt, 순간 최대 풍속 26kt
시정: 10km
맑음
05일 1600시부터 (UTC)
서북서20kt, 순간 최대 풍속 28kt
시정: 10km
맑음
06일 0000시부터 (UTC)
서북서15kt, 순간 최대 풍속 25kt
시정: 10km
맑음

TAF: KSWF 050233Z 0503/0606 31018G28KT P6SM SKC FM051000 31016G26KT P6SM SKC FM051600 30020G28KT P6SM SKC FM060000 30015G25KT P6SM SKC AMD NOT SKED

4,000개 이상의 공항 관측 자료 및 예보 (METAR 및 TAF 보고).

지도상에서 검색 가능한 기상관측소가 노란 점과 빨간 점으로 표시되어 있습니다.

기상관측소 명을 보려면 표시 위로 마우스를 이동하세요.

날씨 관측과 예보를 보려면 클릭하세요.

지도 변경 : 확대하려면 엑스 표시가 있는 녹색 버튼, 축소하려면 빼기 표시가 있는 녹색 버튼, 다음 페이지의 지도를 보려면 녹색 화살표를 클릭하세요.


METAR-TAF: